sensor_id;sensor_type;location;lat;lon;timestamp;pressure;altitude;pressure_sealevel;temperature;humidity
40245;BME280;25963;42.694;23.600;2022-11-14T00:00:26;96341.41;;;3.08;100.00
40245;BME280;25963;42.694;23.600;2022-11-14T00:02:52;96344.84;;;2.99;100.00
40245;BME280;25963;42.694;23.600;2022-11-14T00:05:17;96351.47;;;2.74;100.00
40245;BME280;25963;42.694;23.600;2022-11-14T00:07:43;96335.84;;;2.74;100.00
40245;BME280;25963;42.694;23.600;2022-11-14T00:10:09;96353.00;;;2.57;100.00
40245;BME280;25963;42.694;23.600;2022-11-14T00:12:35;96352.84;;;2.68;100.00
40245;BME280;25963;42.694;23.600;2022-11-14T00:15:00;96347.53;;;2.70;100.00
40245;BME280;25963;42.694;23.600;2022-11-14T00:17:26;96353.97;;;2.56;100.00
40245;BME280;25963;42.694;23.600;2022-11-14T00:19:51;96342.75;;;2.46;100.00
40245;BME280;25963;42.694;23.600;2022-11-14T00:22:16;96330.09;;;2.51;100.00
40245;BME280;25963;42.694;23.600;2022-11-14T00:24:42;96333.53;;;2.61;100.00
40245;BME280;25963;42.694;23.600;2022-11-14T00:27:07;96345.19;;;2.77;100.00
40245;BME280;25963;42.694;23.600;2022-11-14T00:29:33;96331.47;;;2.84;100.00
40245;BME280;25963;42.694;23.600;2022-11-14T00:31:58;96336.50;;;2.86;100.00
40245;BME280;25963;42.694;23.600;2022-11-14T00:34:23;96333.91;;;2.86;100.00
40245;BME280;25963;42.694;23.600;2022-11-14T00:36:49;96332.53;;;2.91;100.00
40245;BME280;25963;42.694;23.600;2022-11-14T00:39:14;96333.22;;;2.93;100.00
40245;BME280;25963;42.694;23.600;2022-11-14T00:41:40;96329.09;;;2.91;100.00
40245;BME280;25963;42.694;23.600;2022-11-14T00:44:06;96328.81;;;2.94;100.00
40245;BME280;25963;42.694;23.600;2022-11-14T00:46:32;96328.66;;;2.95;100.00
40245;BME280;25963;42.694;23.600;2022-11-14T00:48:58;96329.69;;;2.65;100.00
40245;BME280;25963;42.694;23.600;2022-11-14T00:51:23;96317.47;;;2.76;100.00
40245;BME280;25963;42.694;23.600;2022-11-14T00:53:49;96331.34;;;2.66;100.00
40245;BME280;25963;42.694;23.600;2022-11-14T00:56:14;96330.09;;;2.51;100.00
40245;BME280;25963;42.694;23.600;2022-11-14T00:58:39;96336.94;;;2.71;100.00
40245;BME280;25963;42.694;23.600;2022-11-14T01:01:05;96328.84;;;2.74;100.00
40245;BME280;25963;42.694;23.600;2022-11-14T01:03:31;96325.72;;;2.61;100.00
40245;BME280;25963;42.694;23.600;2022-11-14T01:05:56;96334.50;;;2.70;100.00
40245;BME280;25963;42.694;23.600;2022-11-14T01:08:21;96332.69;;;2.80;100.00
40245;BME280;25963;42.694;23.600;2022-11-14T01:10:49;96326.38;;;2.83;100.00
40245;BME280;25963;42.694;23.600;2022-11-14T01:13:16;96326.25;;;2.74;100.00
40245;BME280;25963;42.694;23.600;2022-11-14T01:15:47;96327.63;;;2.59;100.00
40245;BME280;25963;42.694;23.600;2022-11-14T01:18:15;96326.00;;;2.58;100.00
40245;BME280;25963;42.694;23.600;2022-11-14T01:20:42;96326.56;;;2.52;100.00
40245;BME280;25963;42.694;23.600;2022-11-14T01:23:10;96334.94;;;2.46;100.00
40245;BME280;25963;42.694;23.600;2022-11-14T01:25:38;96328.06;;;2.45;100.00
40245;BME280;25963;42.694;23.600;2022-11-14T01:28:08;96329.03;;;2.34;100.00
40245;BME280;25963;42.694;23.600;2022-11-14T01:30:34;96307.13;;;2.08;100.00
40245;BME280;25963;42.694;23.600;2022-11-14T01:33:00;96312.59;;;2.14;100.00
40245;BME280;25963;42.694;23.600;2022-11-14T01:35:25;96315.88;;;2.16;100.00
40245;BME280;25963;42.694;23.600;2022-11-14T01:37:51;96316.03;;;2.24;100.00
40245;BME280;25963;42.694;23.600;2022-11-14T01:40:16;96305.22;;;2.10;100.00
40245;BME280;25963;42.694;23.600;2022-11-14T01:42:42;96310.69;;;2.16;100.00
40245;BME280;25963;42.694;23.600;2022-11-14T01:45:59;96306.56;;;2.14;100.00
40245;BME280;25963;42.694;23.600;2022-11-14T01:48:42;96301.09;;;2.07;100.00
40245;BME280;25963;42.694;23.600;2022-11-14T01:51:17;96294.22;;;2.06;100.00
40245;BME280;25963;42.694;23.600;2022-11-14T01:53:45;96295.19;;;1.95;100.00
40245;BME280;25963;42.694;23.600;2022-11-14T01:56:14;96292.88;;;1.92;100.00
40245;BME280;25963;42.694;23.600;2022-11-14T01:58:44;96288.47;;;1.93;100.00
40245;BME280;25963;42.694;23.600;2022-11-14T02:01:11;96295.84;;;1.97;100.00
40245;BME280;25963;42.694;23.600;2022-11-14T02:03:38;96294.38;;;2.04;100.00
40245;BME280;25963;42.694;23.600;2022-11-14T02:06:06;96296.56;;;1.99;100.00
40245;BME280;25963;42.694;23.600;2022-11-14T02:08:34;96292.03;;;2.01;100.00
40245;BME280;25963;42.694;23.600;2022-11-14T02:11:00;96297.25;;;1.92;100.00
40245;BME280;25963;42.694;23.600;2022-11-14T02:13:26;96297.66;;;2.07;100.00
40245;BME280;25963;42.694;23.600;2022-11-14T02:15:51;96287.09;;;2.08;100.00
40245;BME280;25963;42.694;23.600;2022-11-14T02:18:16;96281.91;;;2.08;100.00
40245;BME280;25963;42.694;23.600;2022-11-14T02:20:42;96287.66;;;2.12;100.00
40245;BME280;25963;42.694;23.600;2022-11-14T02:23:11;96285.47;;;2.17;100.00
40245;BME280;25963;42.694;23.600;2022-11-14T02:25:37;96275.88;;;2.17;100.00
40245;BME280;25963;42.694;23.600;2022-11-14T02:28:04;96283.28;;;2.22;100.00
40245;BME280;25963;42.694;23.600;2022-11-14T02:30:31;96285.44;;;2.36;100.00
40245;BME280;25963;42.694;23.600;2022-11-14T02:32:57;96293.66;;;2.41;100.00
40245;BME280;25963;42.694;23.600;2022-11-14T02:35:23;96293.13;;;2.38;100.00
40245;BME280;25963;42.694;23.600;2022-11-14T02:37:48;96292.81;;;2.50;100.00
40245;BME280;25963;42.694;23.600;2022-11-14T02:40:14;96288.34;;;2.43;100.00
40245;BME280;25963;42.694;23.600;2022-11-14T02:42:40;96288.69;;;2.67;100.00
40245;BME280;25963;42.694;23.600;2022-11-14T02:45:06;96290.59;;;2.65;100.00
40245;BME280;25963;42.694;23.600;2022-11-14T02:47:31;96288.97;;;2.64;100.00
40245;BME280;25963;42.694;23.600;2022-11-14T02:49:57;96281.94;;;2.74;100.00
40245;BME280;25963;42.694;23.600;2022-11-14T02:52:22;96277.19;;;2.70;100.00
40245;BME280;25963;42.694;23.600;2022-11-14T02:54:48;96278.84;;;2.61;100.00
40245;BME280;25963;42.694;23.600;2022-11-14T02:57:13;96278.41;;;2.66;100.00
40245;BME280;25963;42.694;23.600;2022-11-14T02:59:38;96282.03;;;2.26;100.00
40245;BME280;25963;42.694;23.600;2022-11-14T03:02:04;96272.53;;;2.64;100.00
40245;BME280;25963;42.694;23.600;2022-11-14T03:04:29;96269.47;;;2.68;100.00
40245;BME280;25963;42.694;23.600;2022-11-14T03:06:55;96272.50;;;2.73;100.00
40245;BME280;25963;42.694;23.600;2022-11-14T03:09:20;96266.19;;;2.76;100.00
40245;BME280;25963;42.694;23.600;2022-11-14T03:11:46;96273.28;;;2.84;100.00
40245;BME280;25963;42.694;23.600;2022-11-14T03:14:11;96268.22;;;2.82;100.00
40245;BME280;25963;42.694;23.600;2022-11-14T03:16:37;96269.13;;;3.01;100.00
40245;BME280;25963;42.694;23.600;2022-11-14T03:19:02;96272.69;;;3.00;100.00
40245;BME280;25963;42.694;23.600;2022-11-14T03:21:28;96259.56;;;2.91;100.00
40245;BME280;25963;42.694;23.600;2022-11-14T03:23:53;96262.00;;;2.93;100.00
40245;BME280;25963;42.694;23.600;2022-11-14T03:26:19;96262.09;;;3.01;100.00
40245;BME280;25963;42.694;23.600;2022-11-14T03:28:44;96260.19;;;3.03;100.00
40245;BME280;25963;42.694;23.600;2022-11-14T03:31:11;96266.09;;;3.05;100.00
40245;BME280;25963;42.694;23.600;2022-11-14T03:33:37;96257.06;;;3.00;100.00
40245;BME280;25963;42.694;23.600;2022-11-14T03:36:03;96251.06;;;3.17;100.00
40245;BME280;25963;42.694;23.600;2022-11-14T03:38:29;96255.16;;;3.19;100.00
40245;BME280;25963;42.694;23.600;2022-11-14T03:40:57;96261.16;;;3.02;100.00
40245;BME280;25963;42.694;23.600;2022-11-14T03:43:22;96261.00;;;3.04;100.00
40245;BME280;25963;42.694;23.600;2022-11-14T03:45:48;96261.34;;;3.18;100.00
40245;BME280;25963;42.694;23.600;2022-11-14T03:48:13;96257.06;;;3.27;100.00
40245;BME280;25963;42.694;23.600;2022-11-14T03:50:40;96260.59;;;3.36;100.00
40245;BME280;25963;42.694;23.600;2022-11-14T03:53:06;96259.84;;;3.43;100.00
40245;BME280;25963;42.694;23.600;2022-11-14T03:55:31;96261.22;;;3.48;100.00
40245;BME280;25963;42.694;23.600;2022-11-14T03:57:57;96257.09;;;3.45;100.00
40245;BME280;25963;42.694;23.600;2022-11-14T04:00:22;96254.91;;;3.40;100.00
40245;BME280;25963;42.694;23.600;2022-11-14T04:02:48;96260.13;;;3.40;100.00
40245;BME280;25963;42.694;23.600;2022-11-14T04:05:13;96250.53;;;3.41;100.00
40245;BME280;25963;42.694;23.600;2022-11-14T04:07:39;96257.41;;;3.42;100.00
40245;BME280;25963;42.694;23.600;2022-11-14T04:10:05;96258.97;;;3.53;100.00
40245;BME280;25963;42.694;23.600;2022-11-14T04:12:31;96247.03;;;3.32;100.00
40245;BME280;25963;42.694;23.600;2022-11-14T04:14:56;96253.81;;;3.43;100.00
40245;BME280;25963;42.694;23.600;2022-11-14T04:17:22;96255.25;;;3.55;100.00
40245;BME280;25963;42.694;23.600;2022-11-14T04:19:47;96241.69;;;3.52;100.00
40245;BME280;25963;42.694;23.600;2022-11-14T04:22:13;96250.72;;;3.57;100.00
40245;BME280;25963;42.694;23.600;2022-11-14T04:24:38;96242.59;;;3.60;100.00
40245;BME280;25963;42.694;23.600;2022-11-14T04:27:03;96249.44;;;3.61;100.00
40245;BME280;25963;42.694;23.600;2022-11-14T04:29:29;96245.50;;;3.57;100.00
40245;BME280;25963;42.694;23.600;2022-11-14T04:31:54;96248.84;;;3.67;100.00
40245;BME280;25963;42.694;23.600;2022-11-14T04:34:20;96247.38;;;3.65;100.00
40245;BME280;25963;42.694;23.600;2022-11-14T04:36:45;96238.06;;;3.62;100.00
40245;BME280;25963;42.694;23.600;2022-11-14T04:39:10;96237.75;;;3.65;100.00
40245;BME280;25963;42.694;23.600;2022-11-14T04:41:36;96229.44;;;3.52;100.00
40245;BME280;25963;42.694;23.600;2022-11-14T04:44:01;96235.75;;;3.59;100.00
40245;BME280;25963;42.694;23.600;2022-11-14T04:46:27;96236.66;;;3.68;100.00
40245;BME280;25963;42.694;23.600;2022-11-14T04:48:52;96235.16;;;3.65;100.00
40245;BME280;25963;42.694;23.600;2022-11-14T04:51:18;96232.53;;;3.65;100.00
40245;BME280;25963;42.694;23.600;2022-11-14T04:53:43;96240.06;;;3.69;100.00
40245;BME280;25963;42.694;23.600;2022-11-14T04:56:09;96236.88;;;3.75;100.00
40245;BME280;25963;42.694;23.600;2022-11-14T04:58:34;96249.44;;;3.79;100.00
40245;BME280;25963;42.694;23.600;2022-11-14T05:01:06;96235.47;;;3.80;100.00
40245;BME280;25963;42.694;23.600;2022-11-14T05:03:32;96252.16;;;3.87;100.00
40245;BME280;25963;42.694;23.600;2022-11-14T05:06:01;96245.72;;;3.82;100.00
40245;BME280;25963;42.694;23.600;2022-11-14T05:08:27;96251.63;;;3.84;100.00
40245;BME280;25963;42.694;23.600;2022-11-14T05:10:52;96248.22;;;3.83;100.00
40245;BME280;25963;42.694;23.600;2022-11-14T05:13:17;96245.00;;;3.89;100.00
40245;BME280;25963;42.694;23.600;2022-11-14T05:15:43;96242.81;;;3.85;100.00
40245;BME280;25963;42.694;23.600;2022-11-14T05:18:08;96246.13;;;3.87;100.00
40245;BME280;25963;42.694;23.600;2022-11-14T05:20:34;96241.28;;;3.74;100.00
40245;BME280;25963;42.694;23.600;2022-11-14T05:22:59;96241.88;;;3.86;100.00
40245;BME280;25963;42.694;23.600;2022-11-14T05:25:25;96250.88;;;3.92;100.00
40245;BME280;25963;42.694;23.600;2022-11-14T05:27:50;96245.91;;;3.98;100.00
40245;BME280;25963;42.694;23.600;2022-11-14T05:30:15;96247.09;;;4.04;100.00
40245;BME280;25963;42.694;23.600;2022-11-14T05:32:41;96251.41;;;4.13;100.00
40245;BME280;25963;42.694;23.600;2022-11-14T05:35:07;96250.81;;;4.19;100.00
40245;BME280;25963;42.694;23.600;2022-11-14T05:37:33;96252.94;;;4.24;100.00
40245;BME280;25963;42.694;23.600;2022-11-14T05:39:59;96239.00;;;4.15;100.00
40245;BME280;25963;42.694;23.600;2022-11-14T05:42:26;96253.31;;;4.29;100.00
40245;BME280;25963;42.694;23.600;2022-11-14T05:44:51;96257.66;;;4.38;100.00
40245;BME280;25963;42.694;23.600;2022-11-14T05:47:17;96259.03;;;4.50;100.00
40245;BME280;25963;42.694;23.600;2022-11-14T05:49:42;96249.25;;;4.52;100.00
40245;BME280;25963;42.694;23.600;2022-11-14T05:52:07;96252.59;;;4.63;100.00
40245;BME280;25963;42.694;23.600;2022-11-14T05:54:33;96256.75;;;4.73;100.00
40245;BME280;25963;42.694;23.600;2022-11-14T05:56:58;96251.66;;;4.72;100.00
40245;BME280;25963;42.694;23.600;2022-11-14T05:59:24;96249.09;;;4.54;100.00
40245;BME280;25963;42.694;23.600;2022-11-14T06:01:49;96253.41;;;4.63;100.00
40245;BME280;25963;42.694;23.600;2022-11-14T06:04:14;96252.28;;;4.66;100.00
40245;BME280;25963;42.694;23.600;2022-11-14T06:06:40;96252.94;;;4.68;100.00
40245;BME280;25963;42.694;23.600;2022-11-14T06:09:05;96248.59;;;4.76;100.00
40245;BME280;25963;42.694;23.600;2022-11-14T06:11:32;96256.94;;;4.80;100.00
40245;BME280;25963;42.694;23.600;2022-11-14T06:13:58;96257.94;;;4.79;100.00
40245;BME280;25963;42.694;23.600;2022-11-14T06:16:23;96255.34;;;4.87;100.00
40245;BME280;25963;42.694;23.600;2022-11-14T06:18:52;96261.41;;;4.88;100.00
40245;BME280;25963;42.694;23.600;2022-11-14T06:21:19;96259.94;;;4.93;100.00
40245;BME280;25963;42.694;23.600;2022-11-14T06:23:46;96256.06;;;4.97;100.00
40245;BME280;25963;42.694;23.600;2022-11-14T06:26:23;96274.69;;;5.02;100.00
40245;BME280;25963;42.694;23.600;2022-11-14T06:28:50;96270.34;;;5.11;100.00
40245;BME280;25963;42.694;23.600;2022-11-14T06:31:16;96268.56;;;5.12;100.00
40245;BME280;25963;42.694;23.600;2022-11-14T06:33:42;96263.78;;;5.07;100.00
40245;BME280;25963;42.694;23.600;2022-11-14T06:36:07;96272.31;;;5.09;100.00
40245;BME280;25963;42.694;23.600;2022-11-14T06:38:35;96268.25;;;5.15;100.00
40245;BME280;25963;42.694;23.600;2022-11-14T06:41:12;96263.97;;;5.14;100.00
40245;BME280;25963;42.694;23.600;2022-11-14T06:43:39;96266.69;;;5.30;100.00
40245;BME280;25963;42.694;23.600;2022-11-14T06:46:07;96263.13;;;5.39;100.00
40245;BME280;25963;42.694;23.600;2022-11-14T06:48:33;96257.22;;;5.37;100.00
40245;BME280;25963;42.694;23.600;2022-11-14T06:50:59;96265.91;;;5.46;100.00
40245;BME280;25963;42.694;23.600;2022-11-14T06:53:27;96258.53;;;5.41;100.00
40245;BME280;25963;42.694;23.600;2022-11-14T06:56:01;96268.25;;;5.57;100.00
40245;BME280;25963;42.694;23.600;2022-11-14T06:58:39;96264.47;;;5.52;100.00
40245;BME280;25963;42.694;23.600;2022-11-14T07:03:34;96257.63;;;5.67;100.00
40245;BME280;25963;42.694;23.600;2022-11-14T07:06:00;96254.03;;;5.68;100.00
40245;BME280;25963;42.694;23.600;2022-11-14T07:08:26;96257.03;;;5.81;100.00
40245;BME280;25963;42.694;23.600;2022-11-14T07:10:52;96251.81;;;5.89;100.00
40245;BME280;25963;42.694;23.600;2022-11-14T07:13:17;96257.25;;;5.96;100.00
40245;BME280;25963;42.694;23.600;2022-11-14T07:15:52;96256.28;;;6.05;100.00
40245;BME280;25963;42.694;23.600;2022-11-14T07:18:19;96253.81;;;6.12;100.00
40245;BME280;25963;42.694;23.600;2022-11-14T07:20:45;96252.81;;;6.13;100.00
40245;BME280;25963;42.694;23.600;2022-11-14T07:23:11;96253.16;;;5.93;100.00
40245;BME280;25963;42.694;23.600;2022-11-14T07:25:36;96247.59;;;5.97;100.00
40245;BME280;25963;42.694;23.600;2022-11-14T07:28:02;96249.88;;;6.00;100.00
40245;BME280;25963;42.694;23.600;2022-11-14T07:30:27;96248.41;;;6.05;100.00
40245;BME280;25963;42.694;23.600;2022-11-14T07:32:55;96252.19;;;6.11;100.00
40245;BME280;25963;42.694;23.600;2022-11-14T07:35:20;96255.13;;;6.24;100.00
40245;BME280;25963;42.694;23.600;2022-11-14T07:37:46;96248.91;;;6.33;100.00
40245;BME280;25963;42.694;23.600;2022-11-14T07:40:11;96240.41;;;6.31;100.00
40245;BME280;25963;42.694;23.600;2022-11-14T07:42:36;96252.00;;;6.45;100.00
40245;BME280;25963;42.694;23.600;2022-11-14T07:45:02;96243.00;;;6.56;100.00
40245;BME280;25963;42.694;23.600;2022-11-14T07:47:27;96242.66;;;6.43;100.00
40245;BME280;25963;42.694;23.600;2022-11-14T07:49:53;96250.56;;;6.34;100.00
40245;BME280;25963;42.694;23.600;2022-11-14T07:52:18;96242.00;;;6.65;100.00
40245;BME280;25963;42.694;23.600;2022-11-14T07:54:44;96239.06;;;6.76;100.00
40245;BME280;25963;42.694;23.600;2022-11-14T07:57:09;96234.28;;;6.80;100.00
40245;BME280;25963;42.694;23.600;2022-11-14T07:59:34;96235.25;;;6.87;100.00
40245;BME280;25963;42.694;23.600;2022-11-14T08:02:00;96237.66;;;6.97;100.00
40245;BME280;25963;42.694;23.600;2022-11-14T08:04:25;96237.19;;;6.93;100.00
40245;BME280;25963;42.694;23.600;2022-11-14T08:06:51;96237.88;;;6.87;100.00
40245;BME280;25963;42.694;23.600;2022-11-14T08:09:17;96248.00;;;6.98;100.00
40245;BME280;25963;42.694;23.600;2022-11-14T08:11:42;96232.41;;;7.05;100.00
40245;BME280;25963;42.694;23.600;2022-11-14T08:14:14;96228.97;;;7.04;100.00
40245;BME280;25963;42.694;23.600;2022-11-14T08:16:40;96239.44;;;7.13;100.00
40245;BME280;25963;42.694;23.600;2022-11-14T08:19:06;96234.34;;;7.11;100.00
40245;BME280;25963;42.694;23.600;2022-11-14T08:21:31;96234.94;;;7.29;100.00
40245;BME280;25963;42.694;23.600;2022-11-14T08:23:57;96228.31;;;7.42;100.00
40245;BME280;25963;42.694;23.600;2022-11-14T08:26:22;96223.72;;;7.44;100.00
40245;BME280;25963;42.694;23.600;2022-11-14T08:28:52;96232.25;;;7.46;100.00
40245;BME280;25963;42.694;23.600;2022-11-14T08:31:18;96235.22;;;7.43;100.00
40245;BME280;25963;42.694;23.600;2022-11-14T08:33:44;96225.06;;;7.40;100.00
40245;BME280;25963;42.694;23.600;2022-11-14T08:36:09;96225.53;;;7.43;100.00
40245;BME280;25963;42.694;23.600;2022-11-14T08:38:35;96225.50;;;7.51;100.00
40245;BME280;25963;42.694;23.600;2022-11-14T08:41:02;96221.19;;;7.27;100.00
40245;BME280;25963;42.694;23.600;2022-11-14T08:43:29;96228.19;;;7.35;100.00
40245;BME280;25963;42.694;23.600;2022-11-14T08:45:59;96224.97;;;7.25;100.00
40245;BME280;25963;42.694;23.600;2022-11-14T08:48:25;96224.78;;;7.26;100.00
40245;BME280;25963;42.694;23.600;2022-11-14T08:50:51;96214.22;;;7.43;100.00
40245;BME280;25963;42.694;23.600;2022-11-14T08:53:16;96220.75;;;7.47;100.00
40245;BME280;25963;42.694;23.600;2022-11-14T08:55:46;96215.91;;;7.67;100.00
40245;BME280;25963;42.694;23.600;2022-11-14T08:58:12;96214.38;;;7.72;100.00
40245;BME280;25963;42.694;23.600;2022-11-14T09:00:37;96209.38;;;7.86;100.00
40245;BME280;25963;42.694;23.600;2022-11-14T09:03:10;96210.00;;;7.88;100.00
40245;BME280;25963;42.694;23.600;2022-11-14T09:05:38;96202.72;;;7.98;100.00
40245;BME280;25963;42.694;23.600;2022-11-14T09:08:04;96204.56;;;8.12;100.00
40245;BME280;25963;42.694;23.600;2022-11-14T09:10:29;96198.28;;;7.75;100.00
40245;BME280;25963;42.694;23.600;2022-11-14T09:12:56;96192.78;;;8.08;100.00
40245;BME280;25963;42.694;23.600;2022-11-14T09:15:22;96184.38;;;8.13;100.00
40245;BME280;25963;42.694;23.600;2022-11-14T09:17:47;96182.03;;;8.41;100.00
40245;BME280;25963;42.694;23.600;2022-11-14T09:20:16;96174.78;;;8.58;100.00
40245;BME280;25963;42.694;23.600;2022-11-14T09:22:43;96174.53;;;8.53;100.00
40245;BME280;25963;42.694;23.600;2022-11-14T09:25:08;96166.28;;;8.71;100.00
40245;BME280;25963;42.694;23.600;2022-11-14T09:27:33;96162.94;;;8.77;100.00
40245;BME280;25963;42.694;23.600;2022-11-14T09:29:59;96168.91;;;8.41;100.00
40245;BME280;25963;42.694;23.600;2022-11-14T09:32:24;96170.06;;;8.38;100.00
40245;BME280;25963;42.694;23.600;2022-11-14T09:34:50;96169.44;;;8.51;100.00
40245;BME280;25963;42.694;23.600;2022-11-14T09:37:15;96167.28;;;7.94;100.00
40245;BME280;25963;42.694;23.600;2022-11-14T09:39:41;96167.06;;;8.18;100.00
40245;BME280;25963;42.694;23.600;2022-11-14T09:44:59;96150.81;;;8.38;100.00
40245;BME280;25963;42.694;23.600;2022-11-14T09:47:32;96149.75;;;8.47;100.00
40245;BME280;25963;42.694;23.600;2022-11-14T09:50:25;96141.16;;;8.68;100.00
40245;BME280;25963;42.694;23.600;2022-11-14T09:52:57;96143.88;;;8.89;100.00
40245;BME280;25963;42.694;23.600;2022-11-14T09:55:31;96136.16;;;8.88;100.00
40245;BME280;25963;42.694;23.600;2022-11-14T09:57:58;96132.53;;;8.89;100.00
40245;BME280;25963;42.694;23.600;2022-11-14T10:00:26;96124.69;;;9.25;100.00
40245;BME280;25963;42.694;23.600;2022-11-14T10:10:47;96119.38;;;9.83;100.00
40245;BME280;25963;42.694;23.600;2022-11-14T10:21:05;96103.84;;;9.67;100.00
40245;BME280;25963;42.694;23.600;2022-11-14T10:26:29;96106.94;;;9.98;100.00
40245;BME280;25963;42.694;23.600;2022-11-14T10:34:49;96097.97;;;10.14;100.00
40245;BME280;25963;42.694;23.600;2022-11-14T10:37:30;96088.50;;;9.98;99.78
40245;BME280;25963;42.694;23.600;2022-11-14T10:40:07;96085.81;;;9.92;100.00
40245;BME280;25963;42.694;23.600;2022-11-14T10:42:36;96078.06;;;10.12;100.00
40245;BME280;25963;42.694;23.600;2022-11-14T10:45:10;96081.13;;;10.15;100.00
40245;BME280;25963;42.694;23.600;2022-11-14T10:47:46;96069.69;;;10.30;100.00
40245;BME280;25963;42.694;23.600;2022-11-14T10:50:19;96067.72;;;10.38;100.00
40245;BME280;25963;42.694;23.600;2022-11-14T10:52:46;96062.22;;;10.33;100.00
40245;BME280;25963;42.694;23.600;2022-11-14T10:55:16;96066.94;;;10.44;100.00
40245;BME280;25963;42.694;23.600;2022-11-14T10:57:44;96061.97;;;10.63;98.64
40245;BME280;25963;42.694;23.600;2022-11-14T11:00:12;96064.63;;;10.63;98.06
40245;BME280;25963;42.694;23.600;2022-11-14T11:03:04;96068.09;;;10.70;96.80
40245;BME280;25963;42.694;23.600;2022-11-14T11:05:44;96050.53;;;10.97;98.04
40245;BME280;25963;42.694;23.600;2022-11-14T11:08:10;96051.50;;;10.83;99.76
40245;BME280;25963;42.694;23.600;2022-11-14T11:10:57;96043.00;;;10.94;97.95
40245;BME280;25963;42.694;23.600;2022-11-14T11:13:52;96050.13;;;10.93;95.95
40245;BME280;25963;42.694;23.600;2022-11-14T11:16:20;96033.66;;;10.91;95.63
40245;BME280;25963;42.694;23.600;2022-11-14T11:18:46;96033.78;;;10.70;94.81
40245;BME280;25963;42.694;23.600;2022-11-14T11:21:13;96029.16;;;10.85;93.72
40245;BME280;25963;42.694;23.600;2022-11-14T11:26:17;96024.38;;;11.09;95.84
40245;BME280;25963;42.694;23.600;2022-11-14T11:29:20;96019.38;;;11.34;97.26
40245;BME280;25963;42.694;23.600;2022-11-14T11:31:50;96023.44;;;11.50;95.42
40245;BME280;25963;42.694;23.600;2022-11-14T11:34:23;96018.75;;;11.45;98.27
40245;BME280;25963;42.694;23.600;2022-11-14T11:39:33;96019.38;;;11.40;93.58
40245;BME280;25963;42.694;23.600;2022-11-14T11:42:05;96017.34;;;11.69;96.82
40245;BME280;25963;42.694;23.600;2022-11-14T11:44:44;96015.13;;;11.79;93.18
40245;BME280;25963;42.694;23.600;2022-11-14T11:47:16;96007.00;;;11.74;91.41
40245;BME280;25963;42.694;23.600;2022-11-14T11:49:47;96012.25;;;11.81;93.01
40245;BME280;25963;42.694;23.600;2022-11-14T11:52:27;96007.81;;;12.08;92.25
40245;BME280;25963;42.694;23.600;2022-11-14T11:55:26;95999.69;;;12.09;92.67
40245;BME280;25963;42.694;23.600;2022-11-14T11:58:04;95996.22;;;11.96;91.23
40245;BME280;25963;42.694;23.600;2022-11-14T12:00:30;95989.91;;;12.03;93.78
40245;BME280;25963;42.694;23.600;2022-11-14T12:02:56;95990.09;;;12.22;93.51
40245;BME280;25963;42.694;23.600;2022-11-14T12:11:19;95980.22;;;12.55;88.85
40245;BME280;25963;42.694;23.600;2022-11-14T12:30:27;95969.00;;;13.05;84.57
40245;BME280;25963;42.694;23.600;2022-11-14T12:33:03;95962.56;;;13.26;85.22
40245;BME280;25963;42.694;23.600;2022-11-14T12:35:34;95962.25;;;13.41;84.60
40245;BME280;25963;42.694;23.600;2022-11-14T12:38:03;95954.47;;;13.46;84.83
40245;BME280;25963;42.694;23.600;2022-11-14T12:42:56;95951.72;;;13.34;83.01
40245;BME280;25963;42.694;23.600;2022-11-14T12:48:33;95950.31;;;12.93;83.53
40245;BME280;25963;42.694;23.600;2022-11-14T12:51:01;95949.28;;;12.94;83.45
40245;BME280;25963;42.694;23.600;2022-11-14T12:56:09;95947.13;;;13.10;84.12
40245;BME280;25963;42.694;23.600;2022-11-14T13:01:47;95945.88;;;13.51;82.34
40245;BME280;25963;42.694;23.600;2022-11-14T13:04:34;95936.13;;;13.69;80.96
40245;BME280;25963;42.694;23.600;2022-11-14T13:13:08;95927.28;;;13.76;80.45
40245;BME280;25963;42.694;23.600;2022-11-14T13:15:55;95923.56;;;13.83;79.96
40245;BME280;25963;42.694;23.600;2022-11-14T13:27:27;95926.13;;;13.90;78.06
40245;BME280;25963;42.694;23.600;2022-11-14T13:29:54;95922.16;;;13.81;78.71
40245;BME280;25963;42.694;23.600;2022-11-14T13:40:50;95907.13;;;13.93;77.25
40245;BME280;25963;42.694;23.600;2022-11-14T13:49:06;95914.81;;;13.83;77.45
40245;BME280;25963;42.694;23.600;2022-11-14T13:51:36;95916.16;;;13.67;77.54
40245;BME280;25963;42.694;23.600;2022-11-14T13:54:10;95911.09;;;13.40;78.60
40245;BME280;25963;42.694;23.600;2022-11-14T13:56:56;95917.22;;;13.41;78.93
40245;BME280;25963;42.694;23.600;2022-11-14T14:05:03;95902.19;;;13.35;78.44
40245;BME280;25963;42.694;23.600;2022-11-14T14:10:50;95907.09;;;13.24;78.62
40245;BME280;25963;42.694;23.600;2022-11-14T14:15:51;95902.94;;;13.10;78.66
40245;BME280;25963;42.694;23.600;2022-11-14T14:18:48;95892.91;;;12.87;79.63
40245;BME280;25963;42.694;23.600;2022-11-14T14:27:05;95896.47;;;12.68;81.00
40245;BME280;25963;42.694;23.600;2022-11-14T14:32:23;95895.59;;;12.42;82.29
40245;BME280;25963;42.694;23.600;2022-11-14T14:34:48;95893.38;;;12.39;82.51
40245;BME280;25963;42.694;23.600;2022-11-14T14:37:17;95901.13;;;12.34;82.72
40245;BME280;25963;42.694;23.600;2022-11-14T14:39:56;95896.94;;;12.13;83.69
40245;BME280;25963;42.694;23.600;2022-11-14T14:42:23;95890.66;;;12.01;84.32
40245;BME280;25963;42.694;23.600;2022-11-14T14:44:49;95889.88;;;11.80;85.08
40245;BME280;25963;42.694;23.600;2022-11-14T14:47:43;95889.28;;;11.72;85.78
40245;BME280;25963;42.694;23.600;2022-11-14T14:50:19;95882.19;;;11.59;85.90
40245;BME280;25963;42.694;23.600;2022-11-14T14:53:00;95886.25;;;11.48;86.24